Time;durP1;ratioP1;P1;durP2;ratioP2;P2;SDS_P1;SDS_P2;PMS_P1;PMS_P2;Temp;Humidity;BMP_temperature;BMP_pressure;BME280_temperature;BME280_humidity;BME280_pressure;Samples;Min_cycle;Max_cycle;Signal;HPM_P1;HPM_P2
2023/04/10 00:00:57;;;;;;;;;;;;;;;;;;5036614;28;20102;-78
2023/04/10 00:03:23;;;;;;;46.70;29.02;;;;;;;;;;5037448;28;19909;-78
2023/04/10 00:05:50;;;;;;;52.72;30.23;;;;;;;;;;5043794;28;20020;-78
2023/04/10 00:08:16;;;;;;;54.50;30.55;;;;;;;;;;5062493;28;20024;-79
2023/04/10 00:10:42;;;;;;;47.40;29.52;;;;;;;;;;5040278;28;20025;-78
2023/04/10 00:13:08;;;;;;;51.08;30.38;;;;;;;;;;5042339;28;20028;-79
2023/04/10 00:15:34;;;;;;;51.70;29.83;;;;;;;;;;5017126;28;20151;-78
2023/04/10 00:18:00;;;;;;;56.60;30.17;;;;;;;;;;5040262;28;20025;-78
2023/04/10 00:20:27;;;;;;;49.83;29.73;;;;;;;;;;5043378;28;20055;-78
2023/04/10 00:22:53;;;;;;;53.25;31.50;;;;;;;;;;5044184;28;20051;-78
2023/04/10 00:25:21;;;;;;;51.10;30.23;;;;;;;;;;5040831;28;20079;-78
2023/04/10 00:27:47;;;;;;;48.65;30.45;;;;;;;;;;5040928;28;20489;-78
2023/04/10 00:30:14;;;;;;;50.38;32.05;;;;;;;;;;5043146;28;20056;-78
2023/04/10 00:32:41;;;;;;;52.67;30.88;;;;;;;;;;5040749;28;20370;-78
2023/04/10 00:35:08;;;;;;;55.25;30.73;;;;;;;;;;5037837;28;20469;-77
2023/04/10 00:37:37;;;;;;;56.65;33.97;;;;;;;;;;5046000;28;20035;-78
2023/04/10 00:40:03;;;;;;;55.35;32.97;;;;;;;;;;5038133;28;20552;-78
2023/04/10 00:42:30;;;;;;;55.60;32.53;;;;;;;;;;5042716;28;20358;-77
2023/04/10 00:44:59;;;;;;;56.08;31.85;;;;;;;;;;5040919;28;20032;-78
2023/04/10 00:47:28;;;;;;;53.70;31.92;;;;;;;;;;5039392;28;20529;-78
2023/04/10 00:49:59;;;;;;;58.83;33.08;;;;;;;;;;5035553;28;20489;-77
2023/04/10 00:52:27;;;;;;;56.85;32.25;;;;;;;;;;5038035;28;20517;-77
2023/04/10 00:54:53;;;;;;;54.85;32.88;;;;;;;;;;5024990;28;20040;-77
2023/04/10 00:57:20;;;;;;;57.00;33.38;;;;;;;;;;5042401;28;20032;-77
2023/04/10 00:59:47;;;;;;;57.67;33.53;;;;;;;;;;5036355;28;20049;-77
2023/04/10 01:02:13;;;;;;;55.03;33.47;;;;;;;;;;5038465;28;20155;-77
2023/04/10 01:04:41;;;;;;;60.30;33.35;;;;;;;;;;5038076;28;20021;-77
2023/04/10 01:07:14;;;;;;;53.25;31.80;;;;;;;;;;5045869;28;20025;-78
2023/04/10 01:09:58;;;;;;;52.67;31.58;;;;;;;;;;5029710;28;20036;-78
2023/04/10 01:12:44;;;;;;;50.38;30.83;;;;;;;;;;5046969;28;20039;-77
2023/04/10 01:15:25;;;;;;;56.80;32.22;;;;;;;;;;5048318;28;20059;-78
2023/04/10 01:18:10;;;;;;;56.75;33.38;;;;;;;;;;5042566;28;20465;-77
2023/04/10 01:20:40;;;;;;;53.88;29.33;;;;;;;;;;5047002;28;20092;-77
2023/04/10 01:23:27;;;;;;;54.83;31.85;;;;;;;;;;5021718;28;20097;-77
2023/04/10 01:26:00;;;;;;;50.78;28.70;;;;;;;;;;5031807;28;20061;-77
2023/04/10 01:28:45;;;;;;;50.45;30.60;;;;;;;;;;5045192;28;20043;-77
2023/04/10 01:31:19;;;;;;;52.80;31.42;;;;;;;;;;5065502;28;20115;-77
2023/04/10 01:33:56;;;;;;;53.15;31.42;;;;;;;;;;5035516;28;20043;-77
2023/04/10 01:36:29;;;;;;;50.97;30.20;;;;;;;;;;5042742;28;20496;-77
2023/04/10 01:38:56;;;;;;;48.75;30.52;;;;;;;;;;5041052;28;20701;-77
2023/04/10 01:41:25;;;;;;;51.10;30.27;;;;;;;;;;5036943;28;20035;-76
2023/04/10 01:43:55;;;;;;;53.67;30.27;;;;;;;;;;5037796;28;20097;-77
2023/04/10 01:46:24;;;;;;;51.03;30.67;;;;;;;;;;5040530;28;20021;-77
2023/04/10 01:48:51;;;;;;;52.00;31.00;;;;;;;;;;5039621;28;20040;-76
2023/04/10 01:51:18;;;;;;;49.92;30.48;;;;;;;;;;5034614;28;20056;-77
2023/04/10 01:53:47;;;;;;;49.55;29.73;;;;;;;;;;5039086;28;20037;-77
2023/04/10 01:56:13;;;;;;;48.33;28.73;;;;;;;;;;5042443;28;20032;-77
2023/04/10 01:58:41;;;;;;;49.35;30.08;;;;;;;;;;5040942;28;20852;-77
2023/04/10 02:01:08;;;;;;;50.72;29.10;;;;;;;;;;5048751;28;20055;-77
2023/04/10 02:03:34;;;;;;;48.30;30.48;;;;;;;;;;5065764;28;20058;-76
2023/04/10 02:06:19;;;;;;;49.40;30.13;;;;;;;;;;5060020;28;20110;-77
2023/04/10 02:08:50;;;;;;;49.30;29.60;;;;;;;;;;5052441;28;20048;-77
2023/04/10 02:11:20;;;;;;;51.70;31.05;;;;;;;;;;5059212;28;20036;-77
2023/04/10 02:13:47;;;;;;;49.30;29.92;;;;;;;;;;5054976;28;20028;-77
2023/04/10 02:16:22;;;;;;;49.33;30.35;;;;;;;;;;5057927;28;20024;-77
2023/04/10 02:18:49;;;;;;;51.15;30.67;;;;;;;;;;5062534;28;20147;-76
2023/04/10 02:21:16;;;;;;;53.40;30.02;;;;;;;;;;5053611;28;20051;-77
2023/04/10 02:23:48;;;;;;;55.53;29.25;;;;;;;;;;5060693;28;20431;-76
2023/04/10 02:26:26;;;;;;;48.55;29.48;;;;;;;;;;5050791;28;20036;-77
2023/04/10 02:28:53;;;;;;;52.33;29.90;;;;;;;;;;5060924;28;20031;-76
2023/04/10 02:31:27;;;;;;;56.45;33.00;;;;;;;;;;5058757;28;20463;-76
2023/04/10 02:33:53;;;;;;;55.55;31.90;;;;;;;;;;5045793;28;20020;-77
2023/04/10 02:36:20;;;;;;;53.90;31.00;;;;;;;;;;5050804;28;20036;-77
2023/04/10 02:38:46;;;;;;;55.83;32.53;;;;;;;;;;5061017;28;20070;-77
2023/04/10 02:41:12;;;;;;;54.70;32.47;;;;;;;;;;5061922;28;20017;-77
2023/04/10 02:43:46;;;;;;;56.33;33.92;;;;;;;;;;5068853;28;20024;-76
2023/04/10 02:46:13;;;;;;;55.08;32.72;;;;;;;;;;5044333;28;20040;-77
2023/04/10 02:48:41;;;;;;;56.65;33.30;;;;;;;;;;5058507;28;20028;-76
2023/04/10 02:51:07;;;;;;;60.75;32.33;;;;;;;;;;5048293;28;20033;-77
2023/04/10 02:53:34;;;;;;;50.47;30.98;;;;;;;;;;5059218;28;20016;-76
2023/04/10 02:56:01;;;;;;;52.95;32.17;;;;;;;;;;5057592;28;20396;-76
2023/04/10 02:58:29;;;;;;;49.42;31.67;;;;;;;;;;5058827;28;20035;-77
2023/04/10 03:00:57;;;;;;;59.03;33.25;;;;;;;;;;5054651;28;20048;-76
2023/04/10 03:03:24;;;;;;;55.45;32.65;;;;;;;;;;5055189;28;20480;-76
2023/04/10 03:05:50;;;;;;;51.33;32.13;;;;;;;;;;5057553;28;20370;-77
2023/04/10 03:08:19;;;;;;;58.25;33.63;;;;;;;;;;5064448;28;20077;-78
2023/04/10 03:10:47;;;;;;;53.13;31.95;;;;;;;;;;5061890;28;20040;-77
2023/04/10 03:13:13;;;;;;;51.15;31.13;;;;;;;;;;5064044;28;20498;-77
2023/04/10 03:15:47;;;;;;;54.78;30.90;;;;;;;;;;5045933;28;20116;-77
2023/04/10 03:18:16;;;;;;;52.67;31.42;;;;;;;;;;5063108;28;20036;-76
2023/04/10 03:20:51;;;;;;;53.20;31.05;;;;;;;;;;5043810;28;20041;-76
2023/04/10 03:23:20;;;;;;;53.97;31.90;;;;;;;;;;5037386;28;20024;-76
2023/04/10 03:26:01;;;;;;;52.88;31.42;;;;;;;;;;5071344;28;20046;-76
2023/04/10 03:28:28;;;;;;;48.78;31.05;;;;;;;;;;5056068;28;20028;-77
2023/04/10 03:30:55;;;;;;;45.50;29.33;;;;;;;;;;5053819;28;20358;-77
2023/04/10 03:33:21;;;;;;;48.38;31.15;;;;;;;;;;5050601;28;20369;-77
2023/04/10 03:35:53;;;;;;;48.67;31.73;;;;;;;;;;5053570;28;20098;-77
2023/04/10 03:38:30;;;;;;;51.30;29.95;;;;;;;;;;5056422;28;20024;-76
2023/04/10 03:40:56;;;;;;;48.75;29.92;;;;;;;;;;5051748;28;20043;-76
2023/04/10 03:43:22;;;;;;;48.25;29.50;;;;;;;;;;5054413;28;20449;-76
2023/04/10 03:45:50;;;;;;;51.72;30.40;;;;;;;;;;5061817;28;20024;-76
2023/04/10 03:48:26;;;;;;;48.08;30.02;;;;;;;;;;5058409;28;20028;-77
2023/04/10 03:50:53;;;;;;;46.58;29.38;;;;;;;;;;5055482;28;20044;-76
2023/04/10 03:53:21;;;;;;;48.88;31.02;;;;;;;;;;5050610;28;20080;-77
2023/04/10 03:55:51;;;;;;;44.78;29.02;;;;;;;;;;5073891;28;20428;-77
2023/04/10 03:58:18;;;;;;;47.45;29.50;;;;;;;;;;5054068;28;20027;-77
2023/04/10 04:00:44;;;;;;;48.78;28.85;;;;;;;;;;5056024;28;20048;-77
2023/04/10 04:03:10;;;;;;;47.47;28.17;;;;;;;;;;5058662;28;20039;-77
2023/04/10 04:05:39;;;;;;;45.40;29.88;;;;;;;;;;5056222;28;20028;-77
2023/04/10 04:08:05;;;;;;;44.83;29.10;;;;;;;;;;5036456;28;20466;-79
2023/04/10 04:10:32;;;;;;;45.33;29.02;;;;;;;;;;5064302;28;20086;-77
2023/04/10 04:12:58;;;;;;;45.05;29.27;;;;;;;;;;5071069;28;20031;-77
2023/04/10 04:15:26;;;;;;;49.65;29.50;;;;;;;;;;5042817;28;20056;-77
2023/04/10 04:17:52;;;;;;;52.08;28.75;;;;;;;;;;5040634;28;20029;-76
2023/04/10 04:20:19;;;;;;;47.63;29.77;;;;;;;;;;5058661;28;20033;-77
2023/04/10 04:22:45;;;;;;;44.08;29.23;;;;;;;;;;5059663;28;20020;-76
2023/04/10 04:25:11;;;;;;;43.55;28.63;;;;;;;;;;5056073;28;20020;-77
2023/04/10 04:27:40;;;;;;;44.08;27.83;;;;;;;;;;5055657;28;20024;-76
2023/04/10 04:30:06;;;;;;;46.88;28.60;;;;;;;;;;5057233;28;20024;-77
2023/04/10 04:32:41;;;;;;;41.78;27.98;;;;;;;;;;5054342;28;20032;-77
2023/04/10 04:35:09;;;;;;;46.90;29.70;;;;;;;;;;5060018;28;20453;-77
2023/04/10 04:37:40;;;;;;;43.78;27.73;;;;;;;;;;5055946;28;20060;-77
2023/04/10 04:40:06;;;;;;;38.88;25.85;;;;;;;;;;5042313;28;20044;-76
2023/04/10 04:42:50;;;;;;;38.85;25.05;;;;;;;;;;5053828;28;20089;-77
2023/04/10 04:45:20;;;;;;;44.53;27.67;;;;;;;;;;5042340;28;20032;-77
2023/04/10 04:47:46;;;;;;;39.58;25.10;;;;;;;;;;5062354;28;20031;-76
2023/04/10 04:50:30;;;;;;;40.80;26.63;;;;;;;;;;5056950;28;20036;-77
2023/04/10 04:53:05;;;;;;;44.38;26.52;;;;;;;;;;5053301;28;20028;-76
2023/04/10 04:55:31;;;;;;;39.15;25.77;;;;;;;;;;5052326;28;20035;-78
2023/04/10 04:57:57;;;;;;;44.72;24.67;;;;;;;;;;5044905;28;20025;-77
2023/04/10 05:00:23;;;;;;;33.58;22.77;;;;;;;;;;5030082;28;20466;-77
2023/04/10 05:02:49;;;;;;;38.70;24.23;;;;;;;;;;5029014;28;20036;-75
2023/04/10 05:05:23;;;;;;;48.50;29.63;;;;;;;;;;5021159;28;20030;-77
2023/04/10 05:07:49;;;;;;;38.97;23.95;;;;;;;;;;5025521;28;20039;-76
2023/04/10 05:10:18;;;;;;;38.70;25.05;;;;;;;;;;5029381;28;20039;-77
2023/04/10 05:12:46;;;;;;;36.33;23.15;;;;;;;;;;5016930;28;20548;-78
2023/04/10 05:15:45;;;;;;;42.22;24.90;;;;;;;;;;5014159;28;20037;-78
2023/04/10 05:18:12;;;;;;;33.83;23.00;;;;;;;;;;5040399;28;20474;-77
2023/04/10 05:20:41;;;;;;;38.65;24.10;;;;;;;;;;5026290;28;20558;-77
2023/04/10 05:23:13;;;;;;;35.00;23.55;;;;;;;;;;5013095;28;20041;-77
2023/04/10 05:25:39;;;;;;;35.92;23.98;;;;;;;;;;5039038;28;20052;-80
2023/04/10 05:28:40;;;;;;;33.63;22.98;;;;;;;;;;5026768;28;20524;-76
2023/04/10 05:31:07;;;;;;;37.13;22.52;;;;;;;;;;5026207;28;20065;-79
2023/04/10 05:33:33;;;;;;;36.90;22.88;;;;;;;;;;5031530;28;20033;-78
2023/04/10 05:36:04;;;;;;;37.03;22.85;;;;;;;;;;5031486;28;20385;-79
2023/04/10 05:38:35;;;;;;;34.72;21.98;;;;;;;;;;5034012;28;20049;-79
2023/04/10 05:41:22;;;;;;;35.40;22.20;;;;;;;;;;5023660;28;20036;-78
2023/04/10 05:43:54;;;;;;;29.58;21.35;;;;;;;;;;5016812;28;20048;-78
2023/04/10 05:46:22;;;;;;;32.03;21.08;;;;;;;;;;5024114;28;20028;-78
2023/04/10 05:48:48;;;;;;;30.25;20.10;;;;;;;;;;5007480;28;20390;-79
2023/04/10 05:51:23;;;;;;;32.08;20.92;;;;;;;;;;5028555;28;20036;-78
2023/04/10 05:53:50;;;;;;;97.05;53.40;;;;;;;;;;5033566;28;20025;-79
2023/04/10 05:56:20;;;;;;;30.77;20.15;;;;;;;;;;5040235;28;20028;-76
2023/04/10 05:59:17;;;;;;;29.40;19.98;;;;;;;;;;5028537;28;20374;-80
2023/04/10 06:01:46;;;;;;;30.67;20.88;;;;;;;;;;5042651;28;20049;-80
2023/04/10 06:04:12;;;;;;;28.73;19.13;;;;;;;;;;5048804;28;20047;-80
2023/04/10 06:06:39;;;;;;;27.75;17.60;;;;;;;;;;5048923;28;20036;-78
2023/04/10 06:09:06;;;;;;;30.85;19.15;;;;;;;;;;5057629;28;20059;-80
2023/04/10 06:11:44;;;;;;;32.75;18.67;;;;;;;;;;5029274;28;20857;-79
2023/04/10 06:14:10;;;;;;;28.23;18.88;;;;;;;;;;5029084;28;20036;-81
2023/04/10 06:20:23;;;;;;;28.92;18.23;;;;;;;;;;5018184;28;20515;-79
2023/04/10 06:22:49;;;;;;;26.48;17.50;;;;;;;;;;5020305;28;20040;-81
2023/04/10 06:25:15;;;;;;;24.13;16.77;;;;;;;;;;5016642;28;20043;-79
2023/04/10 06:27:44;;;;;;;25.02;17.67;;;;;;;;;;5012724;28;20095;-78
2023/04/10 06:30:12;;;;;;;25.40;17.52;;;;;;;;;;5012267;28;20608;-80
2023/04/10 06:32:41;;;;;;;25.70;16.70;;;;;;;;;;5001392;28;20478;-79
2023/04/10 06:35:08;;;;;;;22.30;16.30;;;;;;;;;;4998755;28;20521;-81
2023/04/10 06:37:35;;;;;;;23.98;15.95;;;;;;;;;;4996305;28;20583;-81
2023/04/10 06:40:07;;;;;;;22.77;15.75;;;;;;;;;;5011389;28;20062;-82
2023/04/10 06:42:41;;;;;;;23.27;15.75;;;;;;;;;;5012939;28;20124;-81
2023/04/10 06:45:33;;;;;;;23.33;16.70;;;;;;;;;;5012747;28;20115;-81
2023/04/10 06:47:59;;;;;;;24.83;15.60;;;;;;;;;;5034682;28;20077;-80
2023/04/10 06:56:34;;;;;;;24.15;15.90;;;;;;;;;;4988793;28;20034;-79
2023/04/10 06:59:02;;;;;;;21.20;14.65;;;;;;;;;;4960131;28;20038;-79
2023/04/10 07:01:28;;;;;;;21.85;14.73;;;;;;;;;;4978645;28;20074;-74
2023/04/10 07:04:08;;;;;;;25.25;16.40;;;;;;;;;;5027147;28;20036;-80
2023/04/10 07:06:37;;;;;;;20.13;14.68;;;;;;;;;;5036913;28;20043;-80
2023/04/10 07:09:03;;;;;;;24.08;14.70;;;;;;;;;;5066117;28;20032;-77
2023/04/10 07:11:29;;;;;;;22.52;15.45;;;;;;;;;;5053801;28;20556;-76
2023/04/10 07:13:57;;;;;;;21.48;14.02;;;;;;;;;;5049946;28;20434;-76
2023/04/10 07:16:24;;;;;;;23.67;14.45;;;;;;;;;;5029381;28;20037;-78
2023/04/10 07:18:51;;;;;;;20.58;13.52;;;;;;;;;;5053991;28;20118;-75
2023/04/10 07:21:17;;;;;;;33.78;20.33;;;;;;;;;;5054914;28;20024;-75
2023/04/10 07:23:43;;;;;;;20.92;14.45;;;;;;;;;;5075879;28;20107;-76
2023/04/10 07:26:09;;;;;;;17.92;12.93;;;;;;;;;;5046830;28;20436;-78
2023/04/10 07:28:37;;;;;;;19.58;13.25;;;;;;;;;;5041754;28;20128;-78
2023/04/10 07:31:03;;;;;;;17.23;12.48;;;;;;;;;;5043431;28;20036;-79
2023/04/10 07:33:29;;;;;;;15.15;12.15;;;;;;;;;;5036108;28;20154;-78
2023/04/10 07:35:55;;;;;;;18.63;13.82;;;;;;;;;;5058511;28;20038;-78
2023/04/10 07:38:23;;;;;;;18.17;12.90;;;;;;;;;;5063818;28;20033;-79
2023/04/10 07:40:49;;;;;;;15.90;12.45;;;;;;;;;;5054646;28;20048;-78
2023/04/10 07:43:15;;;;;;;22.35;14.07;;;;;;;;;;5053727;28;20029;-79
2023/04/10 07:45:41;;;;;;;19.70;12.63;;;;;;;;;;5053705;28;20115;-78
2023/04/10 07:48:07;;;;;;;15.88;12.65;;;;;;;;;;5045884;28;20116;-82
2023/04/10 07:50:34;;;;;;;16.83;12.18;;;;;;;;;;5056274;28;20488;-78
2023/04/10 07:53:06;;;;;;;15.20;11.68;;;;;;;;;;5057619;28;20028;-80
2023/04/10 07:55:32;;;;;;;17.57;12.37;;;;;;;;;;5053074;28;20504;-81
2023/04/10 07:57:58;;;;;;;15.10;12.20;;;;;;;;;;5040739;28;20032;-80
2023/04/10 08:00:24;;;;;;;17.10;12.15;;;;;;;;;;5055268;28;20048;-80
2023/04/10 08:02:50;;;;;;;16.45;11.60;;;;;;;;;;5010347;28;20040;-79
2023/04/10 08:05:16;;;;;;;16.25;12.77;;;;;;;;;;5028012;28;20043;-77
2023/04/10 08:07:42;;;;;;;18.10;13.18;;;;;;;;;;5039401;28;20630;-77
2023/04/10 08:10:10;;;;;;;22.58;15.50;;;;;;;;;;5047274;28;20040;-76
2023/04/10 08:12:36;;;;;;;16.08;12.30;;;;;;;;;;5022558;28;20405;-78
2023/04/10 08:15:02;;;;;;;15.75;11.45;;;;;;;;;;5062974;28;20020;-78
2023/04/10 08:17:28;;;;;;;17.17;12.20;;;;;;;;;;5052136;28;20061;-77
2023/04/10 08:19:54;;;;;;;16.30;12.95;;;;;;;;;;5047880;28;20037;-79
2023/04/10 08:22:20;;;;;;;18.75;12.23;;;;;;;;;;5030802;28;20044;-80
2023/04/10 08:24:46;;;;;;;15.40;12.52;;;;;;;;;;5047800;28;20039;-79
2023/04/10 08:27:12;;;;;;;20.80;12.45;;;;;;;;;;5020225;28;20030;-80
2023/04/10 08:29:39;;;;;;;16.80;11.95;;;;;;;;;;5011388;28;20048;-78
2023/04/10 08:32:05;;;;;;;15.38;11.85;;;;;;;;;;5035667;28;20037;-80
2023/04/10 08:34:31;;;;;;;15.75;12.60;;;;;;;;;;5055073;28;20122;-81
2023/04/10 08:36:57;;;;;;;15.25;12.80;;;;;;;;;;5066856;28;20158;-79
2023/04/10 08:39:23;;;;;;;15.90;11.68;;;;;;;;;;5025998;28;20061;-80
2023/04/10 08:41:49;;;;;;;15.15;10.70;;;;;;;;;;5054623;28;20056;-78
2023/04/10 08:44:15;;;;;;;15.32;11.10;;;;;;;;;;5054436;28;20029;-79
2023/04/10 08:46:42;;;;;;;14.90;11.00;;;;;;;;;;5051288;28;20080;-80
2023/04/10 08:49:10;;;;;;;18.55;11.55;;;;;;;;;;5015857;28;20111;-81
2023/04/10 08:51:38;;;;;;;26.73;18.50;;;;;;;;;;5032032;28;20497;-77
2023/04/10 08:54:10;;;;;;;24.13;17.13;;;;;;;;;;5039912;28;20033;-78
2023/04/10 08:56:37;;;;;;;14.77;11.02;;;;;;;;;;5043401;28;20040;-76
2023/04/10 08:59:03;;;;;;;12.07;9.65;;;;;;;;;;5033818;28;20453;-77
2023/04/10 09:01:29;;;;;;;13.35;9.82;;;;;;;;;;5049512;28;20122;-76
2023/04/10 09:03:56;;;;;;;13.25;10.43;;;;;;;;;;5050652;28;20025;-77
2023/04/10 09:06:22;;;;;;;12.90;10.18;;;;;;;;;;5060606;28;20105;-76
2023/04/10 09:08:48;;;;;;;14.93;9.95;;;;;;;;;;5055119;28;20389;-74
2023/04/10 09:11:14;;;;;;;12.13;9.30;;;;;;;;;;5050516;28;20362;-76
2023/04/10 09:13:40;;;;;;;12.10;9.88;;;;;;;;;;5041543;28;20035;-76
2023/04/10 09:16:10;;;;;;;13.18;9.27;;;;;;;;;;5063193;28;20024;-76
2023/04/10 09:18:44;;;;;;;11.00;9.07;;;;;;;;;;5067828;28;20062;-76
2023/04/10 09:21:11;;;;;;;10.57;8.40;;;;;;;;;;5055787;28;20596;-77
2023/04/10 09:23:37;;;;;;;10.15;8.32;;;;;;;;;;5062918;28;20035;-75
2023/04/10 09:26:23;;;;;;;13.50;9.15;;;;;;;;;;5064400;28;20480;-75
2023/04/10 09:29:01;;;;;;;11.18;9.13;;;;;;;;;;5062689;28;20039;-76
2023/04/10 09:31:34;;;;;;;11.77;9.05;;;;;;;;;;5057449;28;20108;-76
2023/04/10 09:34:07;;;;;;;10.77;8.50;;;;;;;;;;5051360;28;20492;-75
2023/04/10 09:36:34;;;;;;;12.85;8.50;;;;;;;;;;5041286;28;20044;-75
2023/04/10 09:39:00;;;;;;;10.95;8.60;;;;;;;;;;5055807;28;20068;-76
2023/04/10 09:41:26;;;;;;;9.35;7.88;;;;;;;;;;5040550;28;20079;-75
2023/04/10 09:44:06;;;;;;;12.93;8.02;;;;;;;;;;5051698;28;20481;-74
2023/04/10 09:46:32;;;;;;;46.42;30.30;;;;;;;;;;5039509;28;20085;-75
2023/04/10 09:49:03;;;;;;;11.23;8.98;;;;;;;;;;5037436;28;20061;-78
2023/04/10 09:51:32;;;;;;;10.45;8.90;;;;;;;;;;5064655;28;20045;-75
2023/04/10 09:53:59;;;;;;;10.88;8.25;;;;;;;;;;5051419;28;20078;-78
2023/04/10 09:56:26;;;;;;;14.02;8.93;;;;;;;;;;5059438;28;20058;-75
2023/04/10 09:58:56;;;;;;;12.85;8.45;;;;;;;;;;5057907;28;20034;-74
2023/04/10 10:01:24;;;;;;;11.48;8.88;;;;;;;;;;5058585;28;20067;-73
2023/04/10 10:03:50;;;;;;;11.20;8.77;;;;;;;;;;5061505;28;20070;-80
2023/04/10 10:06:17;;;;;;;9.23;8.10;;;;;;;;;;5019017;28;20029;-81
2023/04/10 10:08:43;;;;;;;11.55;8.45;;;;;;;;;;5044126;28;20400;-82
2023/04/10 10:11:11;;;;;;;11.60;8.00;;;;;;;;;;5052373;28;20108;-79
2023/04/10 10:13:43;;;;;;;10.38;7.90;;;;;;;;;;5050754;28;20078;-77
2023/04/10 10:16:19;;;;;;;12.18;8.23;;;;;;;;;;5047030;28;20033;-79
2023/04/10 10:18:51;;;;;;;10.73;8.20;;;;;;;;;;5043533;28;20448;-75
2023/04/10 10:21:17;;;;;;;;;;;16.50;99.90;;;;;;5053536;28;20050;-74
2023/04/10 10:23:44;;;;;;;16.95;12.20;;;;;;;;;;5065709;28;19923;-78
2023/04/10 10:26:10;;;;;;;12.20;8.65;;;;;;;;;;5048089;28;20035;-77
2023/04/10 10:28:38;;;;;;;8.57;7.50;;;;;;;;;;5055306;28;20037;-76
2023/04/10 10:31:05;;;;;;;16.17;9.45;;;;;;;;;;5057179;28;20120;-77
2023/04/10 10:33:32;;;;;;;10.13;7.95;;;;;;;;;;5049962;28;21562;-78
2023/04/10 10:36:02;;;;;;;11.93;8.43;;;;;;;;;;5030930;28;20078;-77
2023/04/10 10:38:28;;;;;;;15.15;8.35;;;;;;;;;;5051078;28;20029;-79
2023/04/10 10:41:01;;;;;;;10.68;8.15;;;;;;;;;;5042533;28;20033;-78
2023/04/10 10:43:36;;;;;;;10.30;7.93;;;;;;;;;;5038980;28;20028;-78
2023/04/10 10:46:18;;;;;;;16.10;8.10;;;;;;;;;;5054349;28;20377;-78
2023/04/10 10:48:57;;;;;;;12.07;8.68;;;;;;;;;;5059463;28;20047;-77
2023/04/10 10:51:23;;;;;;;9.70;7.82;;;;;;;;;;5056006;28;20071;-78
2023/04/10 10:53:49;;;;;;;12.65;10.30;;;;;;;;;;5050068;28;20036;-79
2023/04/10 10:56:19;;;;;;;45.78;29.50;;;;;;;;;;5057819;28;20461;-80
2023/04/10 10:58:57;;;;;;;11.45;7.72;;;;;;;;;;5050635;28;20036;-76
2023/04/10 11:01:23;;;;;;;11.82;7.22;;;;;;;;;;5046186;28;20135;-77
2023/04/10 11:03:50;;;;;;;8.35;7.30;;;;;;;;;;5049069;28;20020;-77
2023/04/10 11:06:20;;;;;;;9.32;7.60;;;;;;;;;;5054907;28;20090;-77
2023/04/10 11:08:46;;;;;;;9.90;6.88;;;;;;;;;;5060145;28;20055;-77
2023/04/10 11:11:20;;;;;;;9.15;7.03;;;;;;;;;;5053761;28;20032;-78
2023/04/10 11:13:54;;;;;;;12.32;7.18;;;;;;;;;;5075832;28;20032;-77
2023/04/10 11:16:21;;;;;;;8.15;6.97;;;;;;;;;;5061374;28;22777;-79
2023/04/10 11:18:47;;;;;;;12.68;6.50;;;;;;;;;;5078498;28;20476;-77
2023/04/10 11:21:13;;;;;;;12.35;6.75;;;;;;;;;;5057813;28;20052;-77
2023/04/10 11:23:55;;;;;;;7.82;6.45;;;;;;;;;;5042766;28;20040;-77
2023/04/10 11:26:40;;;;;;;8.63;6.95;;;;;;;;;;5061509;28;20035;-79
2023/04/10 11:29:43;;;;;;;7.20;6.50;;;;;;;;;;5064100;28;20121;-77
2023/04/10 11:32:48;;;;;;;;;;;;;;;;;;;;;
2023/04/10 11:35:36;;;;;;;10.95;6.57;;;;;;;;;;5071483;28;20029;-78
2023/04/10 11:38:31;;;;;;;8.23;5.93;;;;;;;;;;5055046;28;20048;-78
2023/04/10 11:41:20;;;;;;;6.22;5.40;;;;;;;;;;5053505;28;20073;-79
2023/04/10 11:44:24;;;;;;;7.90;6.53;;;;;;;;;;5043178;28;20029;-78
2023/04/10 11:47:18;;;;;;;6.88;5.78;;;;;;;;;;5049775;28;20233;-78
2023/04/10 11:50:01;;;;;;;7.85;6.00;;;;;;;;;;5044686;28;20131;-78
2023/04/10 11:52:32;;;;;;;;;;;;;;;;;;5040604;28;20025;-79
2023/04/10 11:55:04;;;;;;;7.90;6.05;;;;;;;;;;5076519;28;19911;-79
2023/04/10 11:57:36;;;;;;;7.43;5.55;;;;;;;;;;5038948;28;20039;-79
2023/04/10 12:00:23;;;;;;;10.60;6.68;;;;;;;;;;5052360;28;20028;-79
2023/04/10 12:03:12;;;;;;;;;;;;;;;;;;;;;
2023/04/10 12:12:10;;;;;;;6.88;5.45;;;;;;;;;;5072440;28;20053;-79
2023/04/10 12:14:40;;;;;;;6.10;5.50;;;;;;;;;;5023022;28;20382;-78
2023/04/10 12:17:07;;;;;;;8.27;5.82;;;;;;;;;;5056234;28;20033;-80
2023/04/10 12:20:04;;;;;;;6.85;5.95;;;;;;;;;;5051618;28;20037;-81
2023/04/10 12:22:45;;;;;;;6.68;5.55;;;;;;;;;;5068703;28;20040;-82
2023/04/10 12:25:47;;;;;;;6.28;5.35;;;;;;;;;;5037406;28;20036;-81
2023/04/10 12:28:31;;;;;;;5.80;5.00;;;;;;;;;;4950106;28;20049;-82
2023/04/10 12:31:02;;;;;;;8.20;5.80;;;;;;;;;;4954789;28;20051;-81
2023/04/10 12:33:29;;;;;;;6.90;5.60;;;;;;;;;;4949864;28;20038;-82
2023/04/10 12:36:11;;;;;;;6.50;5.75;;;;;;;;;;4970239;28;20067;-82
2023/04/10 12:41:44;;;;;;;7.63;5.78;;;;;;;;;;4975759;28;20060;-78
2023/04/10 12:44:11;;;;;;;6.78;5.75;;;;;;;;;;4959209;28;20078;-81
2023/04/10 12:46:38;;;;;;;11.05;8.65;;;;;;;;;;4986142;28;20579;-80
2023/04/10 12:49:13;;;;;;;8.68;6.57;;;;;;;;;;4971503;28;20125;-78
2023/04/10 12:51:50;;;;;;;6.80;6.00;;;;;;;;;;5003540;28;20044;-80
2023/04/10 12:54:42;;;;;;;5.93;5.22;;;;;;;;;;5021551;28;20049;-76
2023/04/10 12:57:08;;;;;;;7.32;5.93;;;;;;;;;;5036890;28;20052;-78
2023/04/10 12:59:34;;;;;;;7.70;6.10;;;;;;;;;;5016016;28;20056;-79
2023/04/10 13:02:06;;;;;;;7.88;5.60;;;;;;;;;;5007570;28;20110;-78
2023/04/10 13:04:33;;;;;;;12.55;5.93;;;;;;;;;;5015131;28;20033;-81
2023/04/10 13:06:59;;;;;;;6.13;5.20;;;;;;;;;;5044383;28;20136;-81
2023/04/10 13:09:26;;;;;;;7.70;5.90;;;;;;;;;;5043984;28;20025;-80
2023/04/10 13:11:52;;;;;;;7.40;5.53;;;;;;;;;;5048188;28;20060;-80
2023/04/10 13:14:18;;;;;;;7.30;5.40;;;;;;;;;;5054035;28;20107;-80
2023/04/10 13:16:44;;;;;;;11.18;5.15;;;;;;;;;;5042520;28;20032;-80
2023/04/10 13:19:13;;;;;;;6.65;5.35;;;;;;;;;;5035604;28;20422;-82
2023/04/10 13:21:39;;;;;;;15.27;11.05;;;;;;;;;;5064348;28;20059;-82
2023/04/10 13:24:05;;;;;;;22.15;15.38;;;;;;;;;;5039909;28;20036;-81
2023/04/10 13:26:56;;;;;;;8.10;5.40;;;;;;;;;;5060862;28;20035;-79
2023/04/10 13:29:32;;;;;;;6.68;5.78;;;;;;;;;;5032009;28;20036;-80
2023/04/10 13:32:07;;;;;;;6.25;5.43;;;;;;;;;;5032265;28;20441;-81
2023/04/10 13:34:41;;;;;;;16.98;5.57;;;;;;;;;;5065691;28;20040;-78
2023/04/10 13:37:11;;;;;;;8.25;6.05;;;;;;;;;;5056023;28;20105;-80
2023/04/10 13:39:37;;;;;;;10.23;6.25;;;;;;;;;;5067802;28;20508;-79
2023/04/10 13:42:22;;;;;;;12.20;5.57;;;;;;;;;;5070199;28;20131;-81
2023/04/10 13:44:48;;;;;;;7.22;6.10;;;;;;;;;;5071373;28;20495;-80
2023/04/10 13:47:21;;;;;;;6.75;5.30;;;;;;;;;;5056304;28;20024;-82
2023/04/10 13:49:47;;;;;;;7.88;6.10;;;;;;;;;;5045301;28;20021;-81
2023/04/10 13:52:13;;;;;;;7.03;5.30;;;;;;;;;;5043941;28;20435;-79
2023/04/10 13:57:55;;;;;;;6.47;4.97;;;;;;;;;;5056295;28;20406;-75
2023/04/10 14:00:25;;;;;;;9.05;5.50;;;;;;;;;;5071378;28;20032;-81
2023/04/10 14:02:51;;;;;;;7.18;5.53;;;;;;;;;;5039230;28;20047;-83
2023/04/10 14:05:17;;;;;;;18.13;14.13;;;;;;;;;;5051536;28;20422;-78
2023/04/10 14:07:57;;;;;;;7.88;4.65;;;;;;;;;;5053695;28;20036;-80
2023/04/10 14:10:23;;;;;;;8.27;5.65;;;;;;;;;;5051639;28;20032;-76
2023/04/10 14:12:52;;;;;;;5.63;4.93;;;;;;;;;;5057608;28;20131;-79
2023/04/10 14:15:31;;;;;;;9.45;5.30;;;;;;;;;;5056378;28;20032;-77
2023/04/10 14:17:57;;;;;;;12.18;5.78;;;;;;;;;;5047345;28;20385;-79
2023/04/10 14:20:23;;;;;;;6.78;5.50;;;;;;;;;;5043442;28;20032;-78
2023/04/10 14:22:49;;;;;;;9.38;4.80;;;;;;;;;;5053926;28;20385;-77
2023/04/10 14:25:15;;;;;;;6.35;5.30;;;;;;;;;;5057726;28;20020;-79
2023/04/10 14:27:49;;;;;;;8.00;5.22;;;;;;;;;;5053661;28;20096;-79
2023/04/10 14:30:34;;;;;;;9.95;4.85;;;;;;;;;;5054473;28;20039;-82
2023/04/10 14:33:05;;;;;;;7.10;5.22;;;;;;;;;;5060718;28;20049;-77
2023/04/10 14:35:31;;;;;;;7.80;4.90;;;;;;;;;;5037350;28;20123;-79
2023/04/10 14:38:01;;;;;;;7.18;5.10;;;;;;;;;;5062752;28;20028;-79
2023/04/10 14:40:27;;;;;;;6.43;4.80;;;;;;;;;;5053482;28;20036;-79
2023/04/10 14:42:53;;;;;;;7.22;4.95;;;;;;;;;;5054733;28;20036;-79
2023/04/10 14:45:19;;;;;;;9.68;3.92;;;;;;;;;;5043287;28;20076;-77
2023/04/10 14:47:46;;;;;;;4.60;3.90;;;;;;;;;;5057440;28;20024;-81
2023/04/10 14:50:12;;;;;;;7.65;5.35;;;;;;;;;;5053484;28;20483;-83
2023/04/10 14:52:38;;;;;;;9.55;7.05;;;;;;;;;;5051125;28;20036;-76
2023/04/10 14:55:05;;;;;;;10.52;7.15;;;;;;;;;;5058424;28;20097;-80
2023/04/10 14:57:31;;;;;;;9.27;7.85;;;;;;;;;;5064033;28;20039;-77
2023/04/10 14:59:59;;;;;;;11.07;7.93;;;;;;;;;;5059427;28;20032;-78
2023/04/10 15:02:25;;;;;;;8.40;6.82;;;;;;;;;;5028087;28;20091;-80
2023/04/10 15:04:51;;;;;;;12.95;6.40;;;;;;;;;;5055806;28;20033;-78
2023/04/10 15:07:17;;;;;;;11.57;6.95;;;;;;;;;;5053058;28;20142;-78